sensor_id;sensor_type;location;lat;lon;timestamp;temperature;humidity
29917;DHT22;16786;49.466;11.068;2022-10-15T00:01:21;14.30;99.90
29917;DHT22;16786;49.466;11.068;2022-10-15T00:03:49;14.30;99.90
29917;DHT22;16786;49.466;11.068;2022-10-15T00:06:19;14.30;99.90
29917;DHT22;16786;49.466;11.068;2022-10-15T00:08:47;14.30;99.90
29917;DHT22;16786;49.466;11.068;2022-10-15T00:11:17;14.30;99.90
29917;DHT22;16786;49.466;11.068;2022-10-15T00:13:44;14.30;99.90
29917;DHT22;16786;49.466;11.068;2022-10-15T00:16:15;14.30;99.90
29917;DHT22;16786;49.466;11.068;2022-10-15T00:18:43;14.30;99.90
29917;DHT22;16786;49.466;11.068;2022-10-15T00:21:13;14.30;99.90
29917;DHT22;16786;49.466;11.068;2022-10-15T00:23:41;14.30;99.90
29917;DHT22;16786;49.466;11.068;2022-10-15T00:26:12;14.30;99.90
29917;DHT22;16786;49.466;11.068;2022-10-15T00:28:40;14.30;99.90
29917;DHT22;16786;49.466;11.068;2022-10-15T00:31:10;14.30;99.90
29917;DHT22;16786;49.466;11.068;2022-10-15T00:33:38;14.30;99.90
29917;DHT22;16786;49.466;11.068;2022-10-15T00:36:10;14.30;99.90
29917;DHT22;16786;49.466;11.068;2022-10-15T00:38:38;14.30;99.90
29917;DHT22;16786;49.466;11.068;2022-10-15T00:41:06;14.30;99.90
29917;DHT22;16786;49.466;11.068;2022-10-15T00:43:58;14.30;99.90
29917;DHT22;16786;49.466;11.068;2022-10-15T00:46:38;14.30;99.90
29917;DHT22;16786;49.466;11.068;2022-10-15T00:52:22;14.30;99.90
29917;DHT22;16786;49.466;11.068;2022-10-15T00:54:57;14.30;99.90
29917;DHT22;16786;49.466;11.068;2022-10-15T00:57:26;14.30;99.90
29917;DHT22;16786;49.466;11.068;2022-10-15T00:59:57;14.30;99.90
29917;DHT22;16786;49.466;11.068;2022-10-15T01:02:28;14.30;99.90
29917;DHT22;16786;49.466;11.068;2022-10-15T01:04:55;14.30;99.90
29917;DHT22;16786;49.466;11.068;2022-10-15T01:07:23;14.20;99.90
29917;DHT22;16786;49.466;11.068;2022-10-15T01:09:50;14.20;99.90
29917;DHT22;16786;49.466;11.068;2022-10-15T01:15:28;14.20;99.90
29917;DHT22;16786;49.466;11.068;2022-10-15T01:18:25;14.20;99.90
29917;DHT22;16786;49.466;11.068;2022-10-15T01:29:00;14.20;99.90
29917;DHT22;16786;49.466;11.068;2022-10-15T01:31:46;14.20;99.90
29917;DHT22;16786;49.466;11.068;2022-10-15T01:34:39;14.30;99.90
29917;DHT22;16786;49.466;11.068;2022-10-15T01:37:19;14.20;99.90
29917;DHT22;16786;49.466;11.068;2022-10-15T01:39:55;14.20;99.90
29917;DHT22;16786;49.466;11.068;2022-10-15T01:42:30;14.20;99.90
29917;DHT22;16786;49.466;11.068;2022-10-15T01:45:07;14.20;99.90
29917;DHT22;16786;49.466;11.068;2022-10-15T01:48:09;14.20;99.90
29917;DHT22;16786;49.466;11.068;2022-10-15T01:50:47;14.20;99.90
29917;DHT22;16786;49.466;11.068;2022-10-15T01:53:19;14.20;99.90
29917;DHT22;16786;49.466;11.068;2022-10-15T01:55:56;14.20;99.90
29917;DHT22;16786;49.466;11.068;2022-10-15T01:58:25;14.20;99.90
29917;DHT22;16786;49.466;11.068;2022-10-15T02:00:55;14.20;99.90
29917;DHT22;16786;49.466;11.068;2022-10-15T02:03:23;14.20;99.90
29917;DHT22;16786;49.466;11.068;2022-10-15T02:06:06;14.30;99.90
29917;DHT22;16786;49.466;11.068;2022-10-15T02:11:23;14.20;99.90
29917;DHT22;16786;49.466;11.068;2022-10-15T02:14:05;14.20;99.90
29917;DHT22;16786;49.466;11.068;2022-10-15T02:16:46;14.20;99.90
29917;DHT22;16786;49.466;11.068;2022-10-15T02:19:25;14.20;99.90
29917;DHT22;16786;49.466;11.068;2022-10-15T02:22:08;14.30;99.90
29917;DHT22;16786;49.466;11.068;2022-10-15T02:24:46;14.30;99.90
29917;DHT22;16786;49.466;11.068;2022-10-15T02:27:23;14.20;99.90
29917;DHT22;16786;49.466;11.068;2022-10-15T02:29:51;14.20;99.90
29917;DHT22;16786;49.466;11.068;2022-10-15T02:32:24;14.20;99.90
29917;DHT22;16786;49.466;11.068;2022-10-15T02:35:01;14.20;99.90
29917;DHT22;16786;49.466;11.068;2022-10-15T02:37:30;14.20;99.90
29917;DHT22;16786;49.466;11.068;2022-10-15T02:39:59;14.20;99.90
29917;DHT22;16786;49.466;11.068;2022-10-15T02:42:28;14.20;99.90
29917;DHT22;16786;49.466;11.068;2022-10-15T02:44:56;14.20;99.90
29917;DHT22;16786;49.466;11.068;2022-10-15T02:47:23;14.20;99.90
29917;DHT22;16786;49.466;11.068;2022-10-15T02:49:55;14.20;99.90
29917;DHT22;16786;49.466;11.068;2022-10-15T02:52:23;14.20;99.90
29917;DHT22;16786;49.466;11.068;2022-10-15T02:54:51;14.20;99.90
29917;DHT22;16786;49.466;11.068;2022-10-15T02:57:18;14.20;99.90
29917;DHT22;16786;49.466;11.068;2022-10-15T02:59:46;14.20;99.90
29917;DHT22;16786;49.466;11.068;2022-10-15T03:02:14;14.20;99.90
29917;DHT22;16786;49.466;11.068;2022-10-15T03:04:45;14.20;99.90
29917;DHT22;16786;49.466;11.068;2022-10-15T03:07:13;14.20;99.90
29917;DHT22;16786;49.466;11.068;2022-10-15T03:09:41;14.20;99.90
29917;DHT22;16786;49.466;11.068;2022-10-15T03:12:09;14.20;99.90
29917;DHT22;16786;49.466;11.068;2022-10-15T03:14:36;14.20;99.90
29917;DHT22;16786;49.466;11.068;2022-10-15T03:17:03;14.20;99.90
29917;DHT22;16786;49.466;11.068;2022-10-15T03:19:31;14.20;99.90
29917;DHT22;16786;49.466;11.068;2022-10-15T03:21:58;14.20;99.90
29917;DHT22;16786;49.466;11.068;2022-10-15T03:24:35;14.20;99.90
29917;DHT22;16786;49.466;11.068;2022-10-15T03:27:02;14.20;99.90
29917;DHT22;16786;49.466;11.068;2022-10-15T03:29:30;14.20;99.90
29917;DHT22;16786;49.466;11.068;2022-10-15T03:32:02;14.20;99.90
29917;DHT22;16786;49.466;11.068;2022-10-15T03:34:29;14.20;99.90
29917;DHT22;16786;49.466;11.068;2022-10-15T03:36:56;14.20;99.90
29917;DHT22;16786;49.466;11.068;2022-10-15T03:39:24;14.20;99.90
29917;DHT22;16786;49.466;11.068;2022-10-15T03:41:55;14.30;99.90
29917;DHT22;16786;49.466;11.068;2022-10-15T03:44:29;14.20;99.90
29917;DHT22;16786;49.466;11.068;2022-10-15T03:47:11;14.20;99.90
29917;DHT22;16786;49.466;11.068;2022-10-15T03:49:43;14.20;99.90
29917;DHT22;16786;49.466;11.068;2022-10-15T03:52:11;14.20;99.90
29917;DHT22;16786;49.466;11.068;2022-10-15T03:54:39;14.20;99.90
29917;DHT22;16786;49.466;11.068;2022-10-15T03:57:08;14.20;99.90
29917;DHT22;16786;49.466;11.068;2022-10-15T03:59:41;14.20;99.90
29917;DHT22;16786;49.466;11.068;2022-10-15T04:02:10;14.20;99.90
29917;DHT22;16786;49.466;11.068;2022-10-15T04:04:38;14.20;99.90
29917;DHT22;16786;49.466;11.068;2022-10-15T04:07:05;14.20;99.90
29917;DHT22;16786;49.466;11.068;2022-10-15T04:09:33;14.20;99.90
29917;DHT22;16786;49.466;11.068;2022-10-15T04:12:39;14.30;99.90
29917;DHT22;16786;49.466;11.068;2022-10-15T04:15:10;14.20;99.90
29917;DHT22;16786;49.466;11.068;2022-10-15T04:17:43;14.20;99.90
29917;DHT22;16786;49.466;11.068;2022-10-15T04:20:11;14.20;99.90
29917;DHT22;16786;49.466;11.068;2022-10-15T04:22:42;14.20;99.90
29917;DHT22;16786;49.466;11.068;2022-10-15T04:25:09;14.20;99.90
29917;DHT22;16786;49.466;11.068;2022-10-15T04:27:38;14.20;99.90
29917;DHT22;16786;49.466;11.068;2022-10-15T04:30:17;14.20;99.90
29917;DHT22;16786;49.466;11.068;2022-10-15T04:32:51;14.20;99.90
29917;DHT22;16786;49.466;11.068;2022-10-15T04:35:19;14.30;99.90
29917;DHT22;16786;49.466;11.068;2022-10-15T04:38:02;14.30;99.90
29917;DHT22;16786;49.466;11.068;2022-10-15T04:40:56;14.30;99.90
29917;DHT22;16786;49.466;11.068;2022-10-15T04:43:27;14.30;99.90
29917;DHT22;16786;49.466;11.068;2022-10-15T04:46:02;14.30;99.90
29917;DHT22;16786;49.466;11.068;2022-10-15T04:48:31;14.20;99.90
29917;DHT22;16786;49.466;11.068;2022-10-15T04:51:15;14.20;99.90
29917;DHT22;16786;49.466;11.068;2022-10-15T04:53:59;14.30;99.90
29917;DHT22;16786;49.466;11.068;2022-10-15T04:56:29;14.20;99.90
29917;DHT22;16786;49.466;11.068;2022-10-15T04:58:56;14.30;99.90
29917;DHT22;16786;49.466;11.068;2022-10-15T05:01:27;14.30;99.90
29917;DHT22;16786;49.466;11.068;2022-10-15T05:03:59;14.30;99.90
29917;DHT22;16786;49.466;11.068;2022-10-15T05:06:28;14.30;99.90
29917;DHT22;16786;49.466;11.068;2022-10-15T05:09:03;14.40;99.90
29917;DHT22;16786;49.466;11.068;2022-10-15T05:11:35;14.30;99.90
29917;DHT22;16786;49.466;11.068;2022-10-15T05:14:10;14.30;99.90
29917;DHT22;16786;49.466;11.068;2022-10-15T05:16:38;14.30;99.90
29917;DHT22;16786;49.466;11.068;2022-10-15T05:19:07;14.30;99.90
29917;DHT22;16786;49.466;11.068;2022-10-15T05:21:37;14.20;99.90
29917;DHT22;16786;49.466;11.068;2022-10-15T05:24:12;14.30;99.90
29917;DHT22;16786;49.466;11.068;2022-10-15T05:26:54;14.20;99.90
29917;DHT22;16786;49.466;11.068;2022-10-15T05:29:22;14.20;99.90
29917;DHT22;16786;49.466;11.068;2022-10-15T05:31:50;14.30;99.90
29917;DHT22;16786;49.466;11.068;2022-10-15T05:34:23;14.30;99.90
29917;DHT22;16786;49.466;11.068;2022-10-15T05:36:58;14.30;99.90
29917;DHT22;16786;49.466;11.068;2022-10-15T05:39:25;14.30;99.90
29917;DHT22;16786;49.466;11.068;2022-10-15T05:41:53;14.30;99.90
29917;DHT22;16786;49.466;11.068;2022-10-15T05:44:30;14.30;99.90
29917;DHT22;16786;49.466;11.068;2022-10-15T05:46:58;14.30;99.90
29917;DHT22;16786;49.466;11.068;2022-10-15T05:49:26;14.30;99.90
29917;DHT22;16786;49.466;11.068;2022-10-15T05:52:01;14.30;99.90
29917;DHT22;16786;49.466;11.068;2022-10-15T05:55:00;14.30;99.90
29917;DHT22;16786;49.466;11.068;2022-10-15T05:57:28;14.30;99.90
29917;DHT22;16786;49.466;11.068;2022-10-15T05:59:55;14.40;99.90
29917;DHT22;16786;49.466;11.068;2022-10-15T06:02:22;14.40;99.90
29917;DHT22;16786;49.466;11.068;2022-10-15T06:04:50;14.50;99.90
29917;DHT22;16786;49.466;11.068;2022-10-15T06:07:19;14.50;99.90
29917;DHT22;16786;49.466;11.068;2022-10-15T06:09:46;14.50;99.90
29917;DHT22;16786;49.466;11.068;2022-10-15T06:12:16;14.50;99.90
29917;DHT22;16786;49.466;11.068;2022-10-15T06:14:43;14.50;99.90
29917;DHT22;16786;49.466;11.068;2022-10-15T06:17:11;14.60;99.90
29917;DHT22;16786;49.466;11.068;2022-10-15T06:19:41;14.50;99.90
29917;DHT22;16786;49.466;11.068;2022-10-15T06:22:08;14.60;99.90
29917;DHT22;16786;49.466;11.068;2022-10-15T06:24:36;14.60;99.90
29917;DHT22;16786;49.466;11.068;2022-10-15T06:27:06;14.60;99.90
29917;DHT22;16786;49.466;11.068;2022-10-15T06:29:36;14.70;99.90
29917;DHT22;16786;49.466;11.068;2022-10-15T06:32:03;14.70;99.90
29917;DHT22;16786;49.466;11.068;2022-10-15T06:34:31;14.70;99.90
29917;DHT22;16786;49.466;11.068;2022-10-15T06:36:58;14.70;99.90
29917;DHT22;16786;49.466;11.068;2022-10-15T06:39:25;14.80;99.90
29917;DHT22;16786;49.466;11.068;2022-10-15T06:41:52;14.80;99.90
29917;DHT22;16786;49.466;11.068;2022-10-15T06:44:20;14.90;99.90
29917;DHT22;16786;49.466;11.068;2022-10-15T06:46:47;14.90;99.90
29917;DHT22;16786;49.466;11.068;2022-10-15T06:49:14;14.90;99.90
29917;DHT22;16786;49.466;11.068;2022-10-15T06:51:41;15.00;99.90
29917;DHT22;16786;49.466;11.068;2022-10-15T06:54:09;15.00;99.90
29917;DHT22;16786;49.466;11.068;2022-10-15T06:56:36;15.00;99.90
29917;DHT22;16786;49.466;11.068;2022-10-15T06:59:04;15.00;99.90
29917;DHT22;16786;49.466;11.068;2022-10-15T07:01:31;15.00;99.90
29917;DHT22;16786;49.466;11.068;2022-10-15T07:04:02;15.10;99.90
29917;DHT22;16786;49.466;11.068;2022-10-15T07:06:29;15.10;99.90
29917;DHT22;16786;49.466;11.068;2022-10-15T07:08:56;15.10;99.90
29917;DHT22;16786;49.466;11.068;2022-10-15T07:11:24;15.10;99.90
29917;DHT22;16786;49.466;11.068;2022-10-15T07:13:51;15.20;99.90
29917;DHT22;16786;49.466;11.068;2022-10-15T07:16:19;15.20;99.90
29917;DHT22;16786;49.466;11.068;2022-10-15T07:18:47;15.20;99.90
29917;DHT22;16786;49.466;11.068;2022-10-15T07:21:14;15.30;99.90
29917;DHT22;16786;49.466;11.068;2022-10-15T07:23:42;15.30;99.90
29917;DHT22;16786;49.466;11.068;2022-10-15T07:26:09;15.30;99.90
29917;DHT22;16786;49.466;11.068;2022-10-15T07:28:36;15.20;99.90
29917;DHT22;16786;49.466;11.068;2022-10-15T07:31:06;15.20;99.90
29917;DHT22;16786;49.466;11.068;2022-10-15T07:33:34;15.20;99.90
29917;DHT22;16786;49.466;11.068;2022-10-15T07:36:08;15.20;99.90
29917;DHT22;16786;49.466;11.068;2022-10-15T07:38:36;15.30;99.90
29917;DHT22;16786;49.466;11.068;2022-10-15T07:41:04;15.30;99.90
29917;DHT22;16786;49.466;11.068;2022-10-15T07:43:39;15.30;99.90
29917;DHT22;16786;49.466;11.068;2022-10-15T07:46:06;15.30;99.90
29917;DHT22;16786;49.466;11.068;2022-10-15T07:48:33;15.40;99.90
29917;DHT22;16786;49.466;11.068;2022-10-15T07:51:04;15.40;99.90
29917;DHT22;16786;49.466;11.068;2022-10-15T07:53:32;15.40;99.90
29917;DHT22;16786;49.466;11.068;2022-10-15T07:56:05;15.50;99.90
29917;DHT22;16786;49.466;11.068;2022-10-15T07:58:35;15.60;99.90
29917;DHT22;16786;49.466;11.068;2022-10-15T08:01:05;15.70;99.90
29917;DHT22;16786;49.466;11.068;2022-10-15T08:03:33;15.70;99.90
29917;DHT22;16786;49.466;11.068;2022-10-15T08:06:04;15.80;99.90
29917;DHT22;16786;49.466;11.068;2022-10-15T08:08:32;15.80;99.90
29917;DHT22;16786;49.466;11.068;2022-10-15T08:11:11;15.90;99.90
29917;DHT22;16786;49.466;11.068;2022-10-15T08:13:40;15.90;99.90
29917;DHT22;16786;49.466;11.068;2022-10-15T08:16:11;15.90;99.90
29917;DHT22;16786;49.466;11.068;2022-10-15T08:18:39;15.90;99.90
29917;DHT22;16786;49.466;11.068;2022-10-15T08:21:07;15.90;99.90
29917;DHT22;16786;49.466;11.068;2022-10-15T08:23:35;15.90;99.90
29917;DHT22;16786;49.466;11.068;2022-10-15T08:26:03;15.90;99.90
29917;DHT22;16786;49.466;11.068;2022-10-15T08:28:32;16.00;99.90
29917;DHT22;16786;49.466;11.068;2022-10-15T08:31:03;16.00;99.90
29917;DHT22;16786;49.466;11.068;2022-10-15T08:33:35;16.00;99.90
29917;DHT22;16786;49.466;11.068;2022-10-15T08:36:04;16.00;99.90
29917;DHT22;16786;49.466;11.068;2022-10-15T08:38:33;16.00;99.90
29917;DHT22;16786;49.466;11.068;2022-10-15T08:41:03;16.00;99.90
29917;DHT22;16786;49.466;11.068;2022-10-15T08:43:41;15.90;99.90
29917;DHT22;16786;49.466;11.068;2022-10-15T08:46:19;15.90;99.90
29917;DHT22;16786;49.466;11.068;2022-10-15T08:48:52;15.90;99.90
29917;DHT22;16786;49.466;11.068;2022-10-15T08:51:23;16.00;99.90
29917;DHT22;16786;49.466;11.068;2022-10-15T08:53:58;15.90;99.90
29917;DHT22;16786;49.466;11.068;2022-10-15T08:56:39;16.00;99.90
29917;DHT22;16786;49.466;11.068;2022-10-15T09:02:00;16.10;99.90
29917;DHT22;16786;49.466;11.068;2022-10-15T09:07:38;16.20;99.90
29917;DHT22;16786;49.466;11.068;2022-10-15T09:10:17;16.30;99.90
29917;DHT22;16786;49.466;11.068;2022-10-15T09:12:57;16.50;99.90
29917;DHT22;16786;49.466;11.068;2022-10-15T09:15:26;16.50;99.90
29917;DHT22;16786;49.466;11.068;2022-10-15T09:17:56;16.60;99.90
29917;DHT22;16786;49.466;11.068;2022-10-15T09:20:32;16.70;99.90
29917;DHT22;16786;49.466;11.068;2022-10-15T09:23:00;16.70;99.90
29917;DHT22;16786;49.466;11.068;2022-10-15T09:25:35;16.70;99.90
29917;DHT22;16786;49.466;11.068;2022-10-15T09:28:15;16.90;99.90
29917;DHT22;16786;49.466;11.068;2022-10-15T09:30:50;17.00;99.90
29917;DHT22;16786;49.466;11.068;2022-10-15T09:33:36;17.00;99.90
29917;DHT22;16786;49.466;11.068;2022-10-15T09:44:37;17.20;99.90
29917;DHT22;16786;49.466;11.068;2022-10-15T09:47:25;17.30;99.90
29917;DHT22;16786;49.466;11.068;2022-10-15T09:49:59;17.40;99.90
29917;DHT22;16786;49.466;11.068;2022-10-15T09:52:37;17.50;99.90
29917;DHT22;16786;49.466;11.068;2022-10-15T09:58:01;17.60;99.90
29917;DHT22;16786;49.466;11.068;2022-10-15T10:00:56;17.60;99.90
29917;DHT22;16786;49.466;11.068;2022-10-15T10:03:26;17.60;99.90
29917;DHT22;16786;49.466;11.068;2022-10-15T10:06:09;17.50;99.90
29917;DHT22;16786;49.466;11.068;2022-10-15T10:08:51;17.30;99.90
29917;DHT22;16786;49.466;11.068;2022-10-15T10:11:20;17.20;99.90
29917;DHT22;16786;49.466;11.068;2022-10-15T10:16:17;17.10;99.90
29917;DHT22;16786;49.466;11.068;2022-10-15T10:19:08;17.10;99.90
29917;DHT22;16786;49.466;11.068;2022-10-15T10:21:37;17.10;99.90
29917;DHT22;16786;49.466;11.068;2022-10-15T10:26:46;17.20;99.90
29917;DHT22;16786;49.466;11.068;2022-10-15T10:29:21;17.30;99.90
29917;DHT22;16786;49.466;11.068;2022-10-15T10:32:11;17.40;99.90
29917;DHT22;16786;49.466;11.068;2022-10-15T10:34:42;17.50;99.90
29917;DHT22;16786;49.466;11.068;2022-10-15T10:37:17;17.60;99.90
29917;DHT22;16786;49.466;11.068;2022-10-15T10:39:45;17.70;99.90
29917;DHT22;16786;49.466;11.068;2022-10-15T10:44:46;17.70;99.90
29917;DHT22;16786;49.466;11.068;2022-10-15T10:47:19;17.90;99.90
29917;DHT22;16786;49.466;11.068;2022-10-15T10:52:26;18.00;99.90
29917;DHT22;16786;49.466;11.068;2022-10-15T10:55:16;18.20;99.90
29917;DHT22;16786;49.466;11.068;2022-10-15T10:57:49;18.40;99.90
29917;DHT22;16786;49.466;11.068;2022-10-15T11:00:39;18.40;99.90
29917;DHT22;16786;49.466;11.068;2022-10-15T11:29:50;18.80;99.90
29917;DHT22;16786;49.466;11.068;2022-10-15T11:41:14;18.00;99.90
29917;DHT22;16786;49.466;11.068;2022-10-15T11:44:03;18.00;99.90
29917;DHT22;16786;49.466;11.068;2022-10-15T11:54:41;18.00;99.90
29917;DHT22;16786;49.466;11.068;2022-10-15T11:57:16;18.10;99.90
29917;DHT22;16786;49.466;11.068;2022-10-15T12:02:34;18.40;99.90
29917;DHT22;16786;49.466;11.068;2022-10-15T12:07:56;18.50;99.90
29917;DHT22;16786;49.466;11.068;2022-10-15T12:10:36;18.50;99.90
29917;DHT22;16786;49.466;11.068;2022-10-15T12:13:18;18.60;99.90
29917;DHT22;16786;49.466;11.068;2022-10-15T12:18:42;18.40;99.90
29917;DHT22;16786;49.466;11.068;2022-10-15T12:21:36;18.40;99.90
29917;DHT22;16786;49.466;11.068;2022-10-15T12:24:47;18.40;99.90
29917;DHT22;16786;49.466;11.068;2022-10-15T12:26:52;18.40;99.90
29917;DHT22;16786;49.466;11.068;2022-10-15T12:29:21;18.30;99.90
29917;DHT22;16786;49.466;11.068;2022-10-15T12:31:52;18.30;99.90
29917;DHT22;16786;49.466;11.068;2022-10-15T12:34:39;18.30;99.90
29917;DHT22;16786;49.466;11.068;2022-10-15T12:37:17;18.30;99.90
29917;DHT22;16786;49.466;11.068;2022-10-15T12:39:46;18.40;99.90
29917;DHT22;16786;49.466;11.068;2022-10-15T12:44:54;18.10;99.90
29917;DHT22;16786;49.466;11.068;2022-10-15T12:47:52;18.10;99.90
29917;DHT22;16786;49.466;11.068;2022-10-15T12:50:28;18.20;99.90
29917;DHT22;16786;49.466;11.068;2022-10-15T12:53:04;18.60;99.90
29917;DHT22;16786;49.466;11.068;2022-10-15T12:55:34;18.80;99.90
29917;DHT22;16786;49.466;11.068;2022-10-15T13:00:34;20.80;99.90
29917;DHT22;16786;49.466;11.068;2022-10-15T13:03:38;21.30;99.90
29917;DHT22;16786;49.466;11.068;2022-10-15T13:16:44;19.00;99.90
29917;DHT22;16786;49.466;11.068;2022-10-15T13:19:37;19.20;99.90
29917;DHT22;16786;49.466;11.068;2022-10-15T13:22:22;19.30;99.90
29917;DHT22;16786;49.466;11.068;2022-10-15T13:24:50;19.80;99.90
29917;DHT22;16786;49.466;11.068;2022-10-15T13:27:32;20.40;99.90
29917;DHT22;16786;49.466;11.068;2022-10-15T13:30:09;20.80;99.90
29917;DHT22;16786;49.466;11.068;2022-10-15T13:32:53;22.30;99.90
29917;DHT22;16786;49.466;11.068;2022-10-15T13:35:24;24.10;99.90
29917;DHT22;16786;49.466;11.068;2022-10-15T13:37:58;25.80;99.90
29917;DHT22;16786;49.466;11.068;2022-10-15T13:40:30;27.20;99.90
29917;DHT22;16786;49.466;11.068;2022-10-15T13:43:03;27.80;99.90
29917;DHT22;16786;49.466;11.068;2022-10-15T13:45:32;27.60;99.90
29917;DHT22;16786;49.466;11.068;2022-10-15T13:48:00;28.70;99.90
29917;DHT22;16786;49.466;11.068;2022-10-15T13:50:28;28.60;99.90
29917;DHT22;16786;49.466;11.068;2022-10-15T13:55:46;24.80;99.90
29917;DHT22;16786;49.466;11.068;2022-10-15T13:58:18;22.90;99.90
29917;DHT22;16786;49.466;11.068;2022-10-15T14:03:31;21.40;99.90
29917;DHT22;16786;49.466;11.068;2022-10-15T14:06:13;21.40;99.90
29917;DHT22;16786;49.466;11.068;2022-10-15T14:08:42;21.40;99.90
29917;DHT22;16786;49.466;11.068;2022-10-15T14:11:11;21.20;99.90
29917;DHT22;16786;49.466;11.068;2022-10-15T14:13:53;21.90;99.90
29917;DHT22;16786;49.466;11.068;2022-10-15T14:16:28;23.60;99.90
29917;DHT22;16786;49.466;11.068;2022-10-15T14:19:17;25.50;99.90
29917;DHT22;16786;49.466;11.068;2022-10-15T14:21:46;26.90;99.90
29917;DHT22;16786;49.466;11.068;2022-10-15T14:24:20;27.40;99.90
29917;DHT22;16786;49.466;11.068;2022-10-15T14:26:48;26.90;99.90
29917;DHT22;16786;49.466;11.068;2022-10-15T14:29:27;26.60;99.90
29917;DHT22;16786;49.466;11.068;2022-10-15T14:31:55;25.90;99.90
29917;DHT22;16786;49.466;11.068;2022-10-15T14:37:30;23.60;99.90
29917;DHT22;16786;49.466;11.068;2022-10-15T14:42:44;24.20;99.90
29917;DHT22;16786;49.466;11.068;2022-10-15T14:47:46;22.70;99.90
29917;DHT22;16786;49.466;11.068;2022-10-15T14:50:14;22.30;99.90
29917;DHT22;16786;49.466;11.068;2022-10-15T14:52:48;21.70;99.90
29917;DHT22;16786;49.466;11.068;2022-10-15T14:55:29;21.30;99.90
29917;DHT22;16786;49.466;11.068;2022-10-15T14:58:01;20.90;99.90
29917;DHT22;16786;49.466;11.068;2022-10-15T15:00:42;21.20;99.90
29917;DHT22;16786;49.466;11.068;2022-10-15T15:03:18;21.40;99.90
29917;DHT22;16786;49.466;11.068;2022-10-15T15:05:50;22.90;99.90
29917;DHT22;16786;49.466;11.068;2022-10-15T15:08:19;23.60;99.90
29917;DHT22;16786;49.466;11.068;2022-10-15T15:10:48;23.20;99.90
29917;DHT22;16786;49.466;11.068;2022-10-15T15:13:24;22.70;99.90
29917;DHT22;16786;49.466;11.068;2022-10-15T15:15:52;22.30;99.90
29917;DHT22;16786;49.466;11.068;2022-10-15T15:18:20;21.60;99.90
29917;DHT22;16786;49.466;11.068;2022-10-15T15:20:49;20.80;99.90
29917;DHT22;16786;49.466;11.068;2022-10-15T15:23:23;20.40;99.90
29917;DHT22;16786;49.466;11.068;2022-10-15T15:25:51;19.90;99.90
29917;DHT22;16786;49.466;11.068;2022-10-15T15:28:21;19.60;99.90
29917;DHT22;16786;49.466;11.068;2022-10-15T15:30:58;19.40;99.90
29917;DHT22;16786;49.466;11.068;2022-10-15T15:33:27;19.10;99.90
29917;DHT22;16786;49.466;11.068;2022-10-15T15:36:06;18.90;99.90
29917;DHT22;16786;49.466;11.068;2022-10-15T15:38:34;18.70;99.90
29917;DHT22;16786;49.466;11.068;2022-10-15T15:41:18;18.60;99.90
29917;DHT22;16786;49.466;11.068;2022-10-15T15:43:46;18.50;99.90
29917;DHT22;16786;49.466;11.068;2022-10-15T15:46:14;18.40;99.90
29917;DHT22;16786;49.466;11.068;2022-10-15T15:48:41;18.30;99.90
29917;DHT22;16786;49.466;11.068;2022-10-15T15:51:28;18.30;99.90
29917;DHT22;16786;49.466;11.068;2022-10-15T15:53:57;18.30;99.90
29917;DHT22;16786;49.466;11.068;2022-10-15T15:56:24;18.20;99.90
29917;DHT22;16786;49.466;11.068;2022-10-15T15:58:52;18.20;99.90
29917;DHT22;16786;49.466;11.068;2022-10-15T16:01:19;18.10;99.90
29917;DHT22;16786;49.466;11.068;2022-10-15T16:03:47;18.10;99.90
29917;DHT22;16786;49.466;11.068;2022-10-15T16:06:14;18.00;99.90
29917;DHT22;16786;49.466;11.068;2022-10-15T16:08:42;18.00;99.90
29917;DHT22;16786;49.466;11.068;2022-10-15T16:11:09;18.00;99.90
29917;DHT22;16786;49.466;11.068;2022-10-15T16:13:36;18.00;99.90
29917;DHT22;16786;49.466;11.068;2022-10-15T16:16:04;18.00;99.90
29917;DHT22;16786;49.466;11.068;2022-10-15T16:18:31;17.90;99.90
29917;DHT22;16786;49.466;11.068;2022-10-15T16:20:59;17.80;99.90
29917;DHT22;16786;49.466;11.068;2022-10-15T16:23:26;17.80;99.90
29917;DHT22;16786;49.466;11.068;2022-10-15T16:25:53;17.70;99.90
29917;DHT22;16786;49.466;11.068;2022-10-15T16:28:23;17.70;99.90
29917;DHT22;16786;49.466;11.068;2022-10-15T16:30:50;17.70;99.90
29917;DHT22;16786;49.466;11.068;2022-10-15T16:33:18;17.60;99.90
29917;DHT22;16786;49.466;11.068;2022-10-15T16:35:50;17.70;99.90
29917;DHT22;16786;49.466;11.068;2022-10-15T16:38:18;17.60;99.90
29917;DHT22;16786;49.466;11.068;2022-10-15T16:40:46;17.60;99.90
29917;DHT22;16786;49.466;11.068;2022-10-15T16:43:13;17.60;99.90
29917;DHT22;16786;49.466;11.068;2022-10-15T16:45:40;17.50;99.90
29917;DHT22;16786;49.466;11.068;2022-10-15T16:48:08;17.50;99.90
29917;DHT22;16786;49.466;11.068;2022-10-15T16:50:35;17.50;99.90
29917;DHT22;16786;49.466;11.068;2022-10-15T16:53:02;17.50;99.90
29917;DHT22;16786;49.466;11.068;2022-10-15T16:55:30;17.40;99.90
29917;DHT22;16786;49.466;11.068;2022-10-15T16:57:58;17.40;99.90
29917;DHT22;16786;49.466;11.068;2022-10-15T17:00:25;17.40;99.90
29917;DHT22;16786;49.466;11.068;2022-10-15T17:02:53;17.30;99.90
29917;DHT22;16786;49.466;11.068;2022-10-15T17:05:21;17.30;99.90
29917;DHT22;16786;49.466;11.068;2022-10-15T17:07:48;17.30;99.90
29917;DHT22;16786;49.466;11.068;2022-10-15T17:10:16;17.30;99.90
29917;DHT22;16786;49.466;11.068;2022-10-15T17:12:43;17.20;99.90
29917;DHT22;16786;49.466;11.068;2022-10-15T17:15:10;17.20;99.90
29917;DHT22;16786;49.466;11.068;2022-10-15T17:17:38;17.20;99.90
29917;DHT22;16786;49.466;11.068;2022-10-15T17:20:06;17.20;99.90
29917;DHT22;16786;49.466;11.068;2022-10-15T17:22:35;17.20;99.90
29917;DHT22;16786;49.466;11.068;2022-10-15T17:25:04;17.20;99.90
29917;DHT22;16786;49.466;11.068;2022-10-15T17:27:31;17.20;99.90
29917;DHT22;16786;49.466;11.068;2022-10-15T17:30:00;17.20;99.90
29917;DHT22;16786;49.466;11.068;2022-10-15T17:32:27;17.10;99.90
29917;DHT22;16786;49.466;11.068;2022-10-15T17:34:54;17.10;99.90
29917;DHT22;16786;49.466;11.068;2022-10-15T17:37:28;17.00;99.90
29917;DHT22;16786;49.466;11.068;2022-10-15T17:39:56;17.00;99.90
29917;DHT22;16786;49.466;11.068;2022-10-15T17:42:24;17.00;99.90
29917;DHT22;16786;49.466;11.068;2022-10-15T17:44:51;17.00;99.90
29917;DHT22;16786;49.466;11.068;2022-10-15T17:47:19;17.00;99.90
29917;DHT22;16786;49.466;11.068;2022-10-15T17:49:46;17.00;99.90
29917;DHT22;16786;49.466;11.068;2022-10-15T17:52:13;16.90;99.90